»·PEaware :: WAT175 KATL-KCAK

WAT175 :: KATL-KCAK

FLIGHT INFORMATION

Flight Status: Arrived
Operator:
Walker Air Transport
More flights by this operator :: More flights under this callsign
Pilot: Michael C. (27126)
Aircraft: BOEING 737-800
(B738)
More flights by this aircraft type
Origin: KATL Hartsfield-Jackson Atlanta
United States
Destination: KCAK Akron-Canton Regl
United States
More flights between these airports :: More routes between these airports
Route: SMKEY2 BOBBD HVQ JPU ZZIPS1
File this flight plan on PilotEdge
Remarks: RMK / SIMBRIEF
Altitude:
(Current/Filed)
37,000ft
Speed:
(Current/Filed)
451kts
Departed: 18-Oct-20 06:16 AM
Arrived: 18-Oct-20 07:37 AM
Distance/Time
Traveled:
465nm/1:21
Distance/Time
To Go:
Arrived

Flight Plot

Page will automatically refresh every two minutes.

Flight plan parsing failed; only flown route is shown


Map Options




Map Legend


Flown Route
Filed Route
Departure Airport
Arrival Airport
Navaid (VOR, NDB)
Fix

Horizontal Profiles

Position Reports

Time Latitude Longitude Heading Altitude Ground
Speed
18-Oct-20 06:04 33.640561 -84.438600 269 975ft 0kts
18-Oct-20 06:05 33.640561 -84.438600 269 975ft 0kts
18-Oct-20 06:06 33.640561 -84.438600 269 975ft 0kts
18-Oct-20 06:07 33.640561 -84.438600 269 975ft 0kts
18-Oct-20 06:08 33.640555 -84.438355 268 975ft 2kts
18-Oct-20 06:09 33.640830 -84.437847 192 975ft 2kts
18-Oct-20 06:10 33.640962 -84.437837 180 975ft 0kts
18-Oct-20 06:11 33.640962 -84.437837 180 975ft 0kts
18-Oct-20 06:12 33.640116 -84.437840 180 975ft 11kts
18-Oct-20 06:13 33.636404 -84.437512 173 975ft 13kts
18-Oct-20 06:14 33.635814 -84.443509 270 975ft 19kts
18-Oct-20 06:15 33.634762 -84.441359 89 975ft 65kts
18-Oct-20 06:16 33.634614 -84.388727 89 2651ft 201kts
18-Oct-20 06:17 33.634322 -84.310105 88 5210ft 264kts
18-Oct-20 06:18 33.648282 -84.222638 50 8495ft 280kts
18-Oct-20 06:19 33.715194 -84.178513 359 11483ft 291kts
18-Oct-20 06:20 33.798285 -84.179108 357 14361ft 305kts
18-Oct-20 06:21 33.887147 -84.190977 342 15889ft 353kts
18-Oct-20 06:22 33.986104 -84.215230 349 18309ft 371kts
18-Oct-20 06:23 34.090285 -84.231042 349 20549ft 384kts
18-Oct-20 06:24 34.198318 -84.247780 348 22555ft 397kts
18-Oct-20 06:25 34.308535 -84.249975 2 24331ft 416kts
18-Oct-20 06:26 34.425008 -84.228255 5 25973ft 430kts
18-Oct-20 06:27 34.544608 -84.201351 6 27472ft 441kts
18-Oct-20 06:28 34.667177 -84.172854 6 28836ft 452kts
18-Oct-20 06:29 34.792041 -84.142917 7 30084ft 463kts
18-Oct-20 06:30 34.919044 -84.107272 7 31309ft 470kts
18-Oct-20 06:31 35.047120 -84.071456 7 32500ft 475kts
18-Oct-20 06:32 35.176124 -84.035380 7 33859ft 474kts
18-Oct-20 06:33 35.303566 -83.999681 6 35101ft 472kts
18-Oct-20 06:34 35.430806 -83.963937 6 36276ft 469kts
18-Oct-20 06:35 35.558409 -83.927998 6 37228ft 471kts
18-Oct-20 06:36 35.689106 -83.891125 7 37239ft 493kts
18-Oct-20 06:37 35.820495 -83.836074 24 37257ft 508kts
18-Oct-20 06:38 35.942004 -83.745475 27 37273ft 508kts
18-Oct-20 06:39 36.061827 -83.651829 28 37261ft 510kts
18-Oct-20 06:40 36.181429 -83.557236 28 37245ft 510kts
18-Oct-20 06:41 36.301440 -83.461749 28 37237ft 509kts
18-Oct-20 06:42 36.420563 -83.366564 28 37238ft 509kts
18-Oct-20 06:43 36.539958 -83.270893 29 37238ft 510kts
18-Oct-20 06:44 36.659344 -83.174812 28 37244ft 509kts
18-Oct-20 06:45 36.778714 -83.078354 28 37252ft 510kts
18-Oct-20 06:46 36.898015 -82.981579 29 37256ft 510kts
18-Oct-20 06:47 37.017069 -82.884639 29 37256ft 512kts
18-Oct-20 06:48 37.137970 -82.785825 29 37255ft 521kts
18-Oct-20 06:49 37.259267 -82.686267 29 37234ft 519kts
18-Oct-20 06:50 37.380528 -82.586369 29 37228ft 520kts
18-Oct-20 06:51 37.501627 -82.486215 29 37228ft 520kts
18-Oct-20 06:52 37.622894 -82.385524 29 37228ft 520kts
18-Oct-20 06:53 37.708032 -82.314642 29 37228ft 520kts
18-Oct-20 06:54 37.829147 -82.213515 29 37228ft 520kts
18-Oct-20 06:55 37.944799 -82.116381 29 37231ft 480kts
18-Oct-20 06:56 38.058189 -82.020977 29 37060ft 495kts
18-Oct-20 06:57 38.173973 -81.923045 29 34250ft 497kts
18-Oct-20 06:58 38.288442 -81.824466 30 31377ft 495kts
18-Oct-20 06:59 38.408613 -81.752485 13 29263ft 466kts
18-Oct-20 07:00 38.530038 -81.706243 10 27315ft 442kts
18-Oct-20 07:01 38.646350 -81.663992 10 25305ft 426kts
18-Oct-20 07:02 38.758599 -81.623467 10 23321ft 412kts
18-Oct-20 07:03 38.867555 -81.584128 11 21354ft 400kts
18-Oct-20 07:04 38.973166 -81.545907 11 19407ft 390kts
18-Oct-20 07:05 39.076193 -81.508464 11 17478ft 381kts
18-Oct-20 07:06 39.176741 -81.471836 11 15524ft 373kts
18-Oct-20 07:07 39.276654 -81.435343 12 13364ft 366kts
18-Oct-20 07:08 39.370422 -81.400964 12 11649ft 341kts
18-Oct-20 07:09 39.461365 -81.372736 2 10065ft 326kts
18-Oct-20 07:10 39.545035 -81.363590 1 9867ft 294kts
18-Oct-20 07:11 39.625258 -81.354998 1 9161ft 284kts
18-Oct-20 07:12 39.705343 -81.346414 3 9153ft 288kts
18-Oct-20 07:13 39.786258 -81.337693 2 9150ft 290kts
18-Oct-20 07:14 39.866792 -81.328650 1 8382ft 295kts
18-Oct-20 07:15 39.947008 -81.320295 2 7378ft 285kts
18-Oct-20 07:16 40.025473 -81.311783 3 6376ft 280kts
18-Oct-20 07:17 40.102547 -81.303394 3 5373ft 275kts
18-Oct-20 07:18 40.178237 -81.295141 3 5055ft 274kts
18-Oct-20 07:19 40.253958 -81.286860 4 5032ft 272kts
18-Oct-20 07:20 40.329545 -81.278578 4 5036ft 272kts
18-Oct-20 07:21 40.405170 -81.270272 4 5036ft 272kts
18-Oct-20 07:22 40.480548 -81.261976 4 5014ft 273kts
18-Oct-20 07:23 40.555767 -81.253676 4 4511ft 269kts
18-Oct-20 07:24 40.629993 -81.245468 4 4060ft 265kts
18-Oct-20 07:25 40.703408 -81.237331 4 3753ft 261kts
18-Oct-20 07:26 40.771620 -81.229755 2 3382ft 233kts
18-Oct-20 07:27 40.838651 -81.227501 0 3169ft 264kts
18-Oct-20 07:28 40.905279 -81.225748 0 2962ft 212kts
18-Oct-20 07:29 40.959261 -81.224934 347 2960ft 189kts
18-Oct-20 07:31 41.002752 -81.260973 290 2939ft 182kts
18-Oct-20 07:32 41.009453 -81.325366 270 2975ft 176kts
18-Oct-20 07:33 41.013675 -81.390039 268 2974ft 179kts
18-Oct-20 07:34 40.996140 -81.439069 184 2323ft 146kts
18-Oct-20 07:35 40.973650 -81.436912 181 2127ft 149kts
18-Oct-20 07:36 40.933639 -81.439768 183 1358ft 143kts
18-Oct-20 07:37 40.910738 -81.441036 145 1178ft 9kts
18-Oct-20 07:38 40.913067 -81.438767 9 1178ft 17kts
18-Oct-20 07:39 40.914821 -81.438246 88 1178ft 0kts
18-Oct-20 07:40 41.009771 -81.422872 233 2618ft 157kts

Navigation Log

Ident Type
Flight plan parsing failed, navigation log unavailable